createdAt,value
2018-12-21T00:01:51.000Z,7.90
2018-12-21T00:04:23.366Z,6.47
2018-12-21T00:06:55.714Z,7.57
2018-12-21T00:09:28.052Z,10.03
2018-12-21T00:12:00.401Z,11.40
2018-12-21T00:14:32.767Z,6.37
2018-12-21T00:17:05.115Z,8.70
2018-12-21T00:19:37.472Z,4.13
2018-12-21T00:22:09.832Z,7.87
2018-12-21T00:24:42.204Z,7.07
2018-12-21T00:27:14.542Z,7.67
2018-12-21T00:29:47.184Z,7.40
2018-12-21T00:32:19.549Z,4.50
2018-12-21T00:34:51.904Z,4.90
2018-12-21T00:37:24.227Z,5.17
2018-12-21T00:39:56.534Z,6.30
2018-12-21T00:42:28.856Z,7.83
2018-12-21T00:45:01.230Z,7.37
2018-12-21T00:47:33.531Z,6.47
2018-12-21T00:50:06.991Z,8.30
2018-12-21T00:52:39.339Z,5.63
2018-12-21T00:55:11.682Z,7.70
2018-12-21T00:57:43.989Z,8.33
2018-12-21T01:00:18.351Z,7.47
2018-12-21T01:02:50.665Z,7.20
2018-12-21T01:05:23.002Z,7.67
2018-12-21T01:07:55.343Z,9.20
2018-12-21T01:10:27.640Z,7.83
2018-12-21T01:12:59.946Z,8.23
2018-12-21T01:15:32.285Z,7.40
2018-12-21T01:18:04.605Z,5.23
2018-12-21T01:20:36.963Z,5.53
2018-12-21T01:23:09.277Z,6.87
2018-12-21T01:25:41.886Z,5.87
2018-12-21T01:28:14.193Z,6.43
2018-12-21T01:30:46.531Z,6.00
2018-12-21T01:33:18.855Z,7.70
2018-12-21T01:35:51.202Z,6.43
2018-12-21T01:38:23.532Z,9.27
2018-12-21T01:40:55.964Z,10.57
2018-12-21T01:43:28.291Z,6.83
2018-12-21T01:46:00.980Z,10.93
2018-12-21T01:48:33.277Z,11.17
2018-12-21T01:51:05.620Z,10.73
2018-12-21T02:00:36.437Z,10.00
2018-12-21T02:03:08.775Z,11.13
2018-12-21T02:05:41.112Z,10.17
2018-12-21T02:08:13.464Z,12.07
2018-12-21T02:10:45.822Z,8.37
2018-12-21T02:13:18.154Z,6.67
2018-12-21T02:15:50.500Z,9.13
2018-12-21T02:18:22.847Z,7.10
2018-12-21T02:20:55.175Z,10.07
2018-12-21T02:23:27.484Z,8.10
2018-12-21T02:25:59.810Z,8.77
2018-12-21T02:28:32.134Z,7.53
2018-12-21T02:31:04.466Z,11.40
2018-12-21T02:33:37.085Z,5.77
2018-12-21T02:36:09.700Z,6.23
2018-12-21T02:38:42.117Z,4.10
2018-12-21T02:41:14.434Z,6.03
2018-12-21T02:43:46.754Z,11.57
2018-12-21T02:46:19.093Z,9.60
2018-12-21T02:48:51.398Z,7.77
2018-12-21T02:51:23.730Z,4.90
2018-12-21T02:53:56.030Z,5.93
2018-12-21T02:56:28.346Z,5.87
2018-12-21T02:59:00.651Z,11.27
2018-12-21T03:01:32.974Z,7.23
2018-12-21T03:04:05.525Z,9.50
2018-12-21T03:06:38.163Z,8.10
2018-12-21T03:09:10.478Z,6.00
2018-12-21T03:11:42.900Z,8.47
2018-12-21T03:14:15.208Z,8.33
2018-12-21T03:16:47.538Z,5.40
2018-12-21T03:19:19.842Z,6.43
2018-12-21T03:21:52.156Z,8.83
2018-12-21T03:24:24.580Z,6.00
2018-12-21T03:26:57.235Z,6.23
2018-12-21T03:29:29.558Z,7.73
2018-12-21T03:32:01.999Z,7.27
2018-12-21T03:34:34.410Z,7.97
2018-12-21T03:37:06.809Z,9.27
2018-12-21T03:39:39.139Z,5.53
2018-12-21T03:42:11.529Z,5.60
2018-12-21T03:44:43.858Z,4.40
2018-12-21T03:47:16.163Z,5.97
2018-12-21T03:49:48.487Z,6.70
2018-12-21T03:52:24.433Z,7.40
2018-12-21T03:54:55.103Z,3.53
2018-12-21T03:57:27.490Z,5.83
2018-12-21T03:59:59.794Z,8.13
2018-12-21T04:02:32.178Z,4.80
2018-12-21T04:05:04.550Z,4.50
2018-12-21T04:07:36.937Z,4.80
2018-12-21T04:10:09.334Z,3.67
2018-12-21T04:12:41.879Z,7.10
2018-12-21T04:15:14.228Z,4.07
2018-12-21T04:17:46.513Z,5.13
2018-12-21T04:20:18.865Z,4.70
2018-12-21T04:22:51.254Z,5.90
2018-12-21T04:25:23.923Z,4.97
2018-12-21T04:27:56.237Z,4.33
2018-12-21T04:30:29.151Z,4.17
2018-12-21T04:33:01.602Z,6.43
2018-12-21T04:35:33.922Z,3.33
2018-12-21T04:38:06.262Z,5.00
2018-12-21T04:40:38.658Z,4.90
2018-12-21T04:43:10.954Z,2.50
2018-12-21T04:45:43.288Z,5.97
2018-12-21T04:48:15.705Z,4.30
2018-12-21T04:50:48.015Z,4.97
2018-12-21T04:53:20.335Z,4.80
2018-12-21T04:55:52.659Z,6.83
2018-12-21T04:58:25.006Z,3.70
2018-12-21T05:00:57.335Z,6.23
2018-12-21T05:03:29.674Z,2.27
2018-12-21T05:06:02.010Z,6.77
2018-12-21T05:08:34.335Z,4.70
2018-12-21T05:11:06.830Z,2.87
2018-12-21T05:13:39.138Z,3.97
2018-12-21T05:16:11.458Z,5.37
2018-12-21T05:18:43.933Z,2.73
2018-12-21T05:21:16.366Z,4.27
2018-12-21T05:23:48.687Z,3.57
2018-12-21T05:26:21.034Z,2.17
2018-12-21T05:28:53.382Z,3.10
2018-12-21T05:31:28.564Z,1.67
2018-12-21T05:34:00.010Z,2.77
2018-12-21T05:36:32.543Z,4.60
2018-12-21T05:39:05.485Z,3.93
2018-12-21T05:41:37.802Z,2.87
2018-12-21T05:44:10.227Z,3.33
2018-12-21T05:46:42.535Z,2.57
2018-12-21T05:49:14.850Z,2.73
2018-12-21T05:51:47.161Z,3.67
2018-12-21T05:54:19.477Z,2.53
2018-12-21T05:56:51.803Z,3.00
2018-12-21T05:59:24.112Z,2.50
2018-12-21T06:01:56.438Z,1.73
2018-12-21T06:04:28.755Z,1.37
2018-12-21T06:07:01.125Z,3.47
2018-12-21T06:09:33.434Z,2.60
2018-12-21T06:12:05.959Z,2.40
2018-12-21T06:14:38.327Z,3.90
2018-12-21T06:17:10.694Z,2.10
2018-12-21T06:19:42.994Z,1.40
2018-12-21T06:22:15.573Z,3.60
2018-12-21T06:24:47.889Z,1.70
2018-12-21T06:27:20.197Z,2.50
2018-12-21T06:29:52.775Z,3.87
2018-12-21T06:32:25.120Z,2.60
2018-12-21T06:34:57.440Z,3.27
2018-12-21T06:37:29.782Z,1.87
2018-12-21T06:40:02.099Z,3.70
2018-12-21T06:42:34.511Z,3.93
2018-12-21T06:45:06.841Z,1.67
2018-12-21T06:47:39.174Z,3.33
2018-12-21T06:50:11.579Z,2.83
2018-12-21T06:52:43.900Z,1.97
2018-12-21T06:55:16.326Z,4.20
2018-12-21T06:57:48.645Z,2.70
2018-12-21T07:00:20.991Z,1.50
2018-12-21T07:02:53.418Z,2.43
2018-12-21T07:05:26.113Z,4.70
2018-12-21T07:07:58.427Z,1.73
2018-12-21T07:10:30.734Z,1.87
2018-12-21T07:13:03.189Z,2.20
2018-12-21T07:15:35.534Z,2.47
2018-12-21T07:18:07.855Z,3.20
2018-12-21T07:20:40.378Z,2.53
2018-12-21T07:23:12.718Z,2.50
2018-12-21T07:25:45.026Z,2.93
2018-12-21T07:28:17.424Z,3.70
2018-12-21T07:30:49.752Z,5.10
2018-12-21T07:33:22.065Z,5.77
2018-12-21T07:35:54.374Z,3.07
2018-12-21T07:38:26.918Z,5.60
2018-12-21T07:40:59.223Z,2.03
2018-12-21T07:43:31.561Z,3.00
2018-12-21T07:46:03.888Z,3.40
2018-12-21T07:48:36.242Z,2.90
2018-12-21T07:51:08.546Z,3.87
2018-12-21T07:53:41.161Z,7.60
2018-12-21T07:56:13.523Z,3.77
2018-12-21T07:58:45.884Z,2.17
2018-12-21T08:01:18.288Z,2.73
2018-12-21T08:03:50.595Z,5.80
2018-12-21T08:06:22.911Z,4.80
2018-12-21T08:08:55.250Z,4.33
2018-12-21T08:11:28.214Z,3.07
2018-12-21T08:14:00.566Z,2.30
2018-12-21T08:16:32.870Z,2.33
2018-12-21T08:19:05.185Z,3.90
2018-12-21T08:21:37.487Z,1.87
2018-12-21T08:24:09.828Z,2.30
2018-12-21T08:26:42.201Z,2.43
2018-12-21T08:29:14.545Z,2.97
2018-12-21T08:31:46.865Z,7.67
2018-12-21T08:34:19.251Z,2.40
2018-12-21T08:36:51.916Z,3.87
2018-12-21T08:39:24.254Z,4.07
2018-12-21T08:41:56.589Z,3.47
2018-12-21T08:44:28.923Z,3.53
2018-12-21T08:47:01.458Z,2.50
2018-12-21T08:49:33.783Z,4.73
2018-12-21T08:52:06.155Z,2.80
2018-12-21T08:54:38.501Z,2.93
2018-12-21T08:57:10.794Z,3.00
2018-12-21T08:59:43.411Z,3.23
2018-12-21T09:02:16.028Z,2.27
2018-12-21T09:04:48.675Z,3.03
2018-12-21T09:07:20.994Z,3.00
2018-12-21T09:09:53.606Z,5.50
2018-12-21T09:12:25.951Z,3.20
2018-12-21T09:14:58.274Z,4.23
2018-12-21T09:17:30.647Z,2.10
2018-12-21T09:20:03.081Z,6.47
2018-12-21T09:22:35.461Z,5.10
2018-12-21T09:25:07.828Z,6.10
2018-12-21T09:27:40.139Z,2.47
2018-12-21T09:30:13.395Z,4.87
2018-12-21T09:32:45.735Z,3.47
2018-12-21T09:35:18.042Z,4.33
2018-12-21T09:37:50.353Z,4.20
2018-12-21T09:40:22.905Z,5.27
2018-12-21T09:42:55.246Z,6.87
2018-12-21T09:45:27.627Z,6.37
2018-12-21T09:48:00.477Z,2.90
2018-12-21T09:50:32.851Z,4.93
2018-12-21T09:53:05.223Z,3.07
2018-12-21T09:55:37.576Z,7.20
2018-12-21T09:58:09.894Z,5.33
2018-12-21T10:00:42.226Z,2.90
2018-12-21T10:03:14.549Z,3.93
2018-12-21T10:05:46.863Z,8.20
2018-12-21T10:08:19.191Z,4.70
2018-12-21T10:10:51.533Z,5.30
2018-12-21T10:13:24.134Z,4.47
2018-12-21T10:15:56.450Z,7.23
2018-12-21T10:18:28.770Z,4.27
2018-12-21T10:21:01.090Z,5.47
2018-12-21T10:23:33.427Z,8.33
2018-12-21T10:26:06.019Z,5.27
2018-12-21T10:28:38.642Z,5.57
2018-12-21T10:31:10.970Z,8.20
2018-12-21T10:33:43.311Z,8.37
2018-12-21T10:36:15.630Z,6.27
2018-12-21T10:38:47.954Z,7.90
2018-12-21T10:41:20.333Z,12.80
2018-12-21T10:43:52.657Z,18.17
2018-12-21T10:46:24.974Z,12.00
2018-12-21T10:48:57.324Z,15.10
2018-12-21T10:51:29.662Z,9.30
2018-12-21T10:54:01.986Z,8.27
2018-12-21T10:56:34.330Z,6.10
2018-12-21T10:59:06.643Z,3.73
2018-12-21T11:01:39.224Z,11.33
2018-12-21T11:04:11.570Z,5.33
2018-12-21T11:06:43.904Z,3.50
2018-12-21T11:09:16.219Z,4.43
2018-12-21T11:11:48.547Z,3.93
2018-12-21T11:14:20.883Z,2.90
2018-12-21T11:16:53.231Z,1.80
2018-12-21T11:19:25.554Z,4.23
2018-12-21T11:21:57.887Z,1.07
2018-12-21T11:24:35.446Z,2.73
2018-12-21T11:27:04.526Z,1.93
2018-12-21T11:29:36.874Z,1.90
2018-12-21T11:32:09.202Z,1.33
2018-12-21T11:34:41.591Z,1.57
2018-12-21T11:37:13.946Z,5.87
2018-12-21T11:39:46.270Z,1.23
2018-12-21T11:42:18.919Z,0.90
2018-12-21T11:44:51.236Z,1.23
2018-12-21T11:47:23.552Z,1.10
2018-12-21T11:49:55.866Z,4.47
2018-12-21T11:52:28.211Z,3.50
2018-12-21T11:55:00.584Z,1.00
2018-12-21T11:57:32.927Z,0.93
2018-12-21T12:00:07.127Z,1.17
2018-12-21T12:02:39.434Z,1.10
2018-12-21T12:05:11.750Z,1.00
2018-12-21T12:07:44.218Z,1.67
2018-12-21T12:10:16.546Z,1.20
2018-12-21T12:12:48.879Z,0.80
2018-12-21T12:15:21.202Z,1.23
2018-12-21T12:17:53.563Z,0.60
2018-12-21T12:20:25.895Z,2.37
2018-12-21T12:22:58.191Z,1.70
2018-12-21T12:25:30.504Z,0.80
2018-12-21T12:28:02.854Z,1.23
2018-12-21T12:30:35.162Z,1.67
2018-12-21T12:33:07.490Z,1.53
2018-12-21T12:35:39.799Z,1.10
2018-12-21T12:38:12.463Z,2.80
2018-12-21T12:40:44.782Z,3.60
2018-12-21T12:43:17.200Z,1.23
2018-12-21T12:45:49.591Z,2.17
2018-12-21T12:48:21.974Z,1.53
2018-12-21T12:50:54.278Z,0.87
2018-12-21T12:53:26.611Z,4.00
2018-12-21T12:55:58.943Z,2.20
2018-12-21T12:58:31.263Z,0.90
2018-12-21T13:01:03.590Z,1.23
2018-12-21T13:03:35.929Z,1.20
2018-12-21T13:06:08.255Z,1.77
2018-12-21T13:08:40.631Z,1.20
2018-12-21T13:11:12.950Z,2.73
2018-12-21T13:13:45.510Z,1.70
2018-12-21T13:16:17.842Z,1.13
2018-12-21T13:18:50.222Z,1.30
2018-12-21T13:21:22.932Z,0.90
2018-12-21T13:23:55.262Z,2.17
2018-12-21T13:26:27.566Z,1.37
2018-12-21T13:28:59.902Z,1.60
2018-12-21T13:31:32.250Z,1.10
2018-12-21T13:34:04.662Z,2.53
2018-12-21T13:36:36.974Z,2.30
2018-12-21T13:39:09.311Z,2.20
2018-12-21T13:41:41.618Z,2.13
2018-12-21T13:44:13.929Z,2.93
2018-12-21T13:46:46.251Z,2.63
2018-12-21T13:49:18.578Z,3.90
2018-12-21T13:51:50.914Z,1.83
2018-12-21T13:54:23.244Z,2.13
2018-12-21T13:56:55.574Z,2.90
2018-12-21T13:59:28.147Z,2.43
2018-12-21T14:02:00.474Z,1.53
2018-12-21T14:04:32.794Z,2.40
2018-12-21T14:07:05.137Z,2.33
2018-12-21T14:09:37.473Z,2.87
2018-12-21T14:12:09.786Z,2.47
2018-12-21T14:14:42.129Z,1.90
2018-12-21T14:17:14.458Z,2.00
2018-12-21T14:19:46.786Z,3.60
2018-12-21T14:22:19.198Z,2.67
2018-12-21T14:24:51.518Z,3.53
2018-12-21T14:27:23.833Z,4.17
2018-12-21T14:29:56.462Z,2.33
2018-12-21T14:32:28.775Z,2.93
2018-12-21T14:35:01.192Z,2.40
2018-12-21T14:37:33.558Z,2.47
2018-12-21T14:40:06.035Z,4.87
2018-12-21T14:42:38.369Z,2.13
2018-12-21T14:45:10.936Z,4.03
2018-12-21T14:47:43.244Z,3.67
2018-12-21T14:50:15.549Z,2.27
2018-12-21T14:52:47.862Z,2.23
2018-12-21T14:55:20.207Z,2.90
2018-12-21T14:57:52.837Z,2.10
2018-12-21T15:00:25.498Z,1.83
2018-12-21T15:02:57.810Z,1.70
2018-12-21T15:05:30.443Z,3.70
2018-12-21T15:08:02.759Z,2.77
2018-12-21T15:10:35.087Z,2.23
2018-12-21T15:13:07.629Z,4.27
2018-12-21T15:15:40.251Z,3.30
2018-12-21T15:18:12.569Z,5.80
2018-12-21T15:20:44.872Z,4.43
2018-12-21T15:23:17.176Z,8.50
2018-12-21T15:25:49.498Z,4.90
2018-12-21T15:28:21.794Z,7.93
2018-12-21T15:30:54.150Z,11.20
2018-12-21T15:33:26.446Z,10.70
2018-12-21T15:35:58.774Z,9.20
2018-12-21T15:38:31.089Z,15.67
2018-12-21T15:41:03.434Z,12.17
2018-12-21T15:43:35.749Z,13.30
2018-12-21T15:46:08.103Z,9.97
2018-12-21T15:48:40.407Z,16.10
2018-12-21T15:51:13.017Z,12.53
2018-12-21T15:53:45.352Z,17.03
2018-12-21T15:56:17.777Z,13.87
2018-12-21T15:58:50.428Z,17.63
2018-12-21T16:01:22.944Z,13.70
2018-12-21T16:03:55.302Z,15.80
2018-12-21T16:06:27.660Z,15.93
2018-12-21T16:08:59.983Z,13.67
2018-12-21T16:11:32.384Z,16.67
2018-12-21T16:14:04.706Z,14.20
2018-12-21T16:16:37.685Z,20.23
2018-12-21T16:19:10.032Z,17.10
2018-12-21T16:21:43.607Z,20.60
2018-12-21T16:24:16.119Z,16.23
2018-12-21T16:26:48.874Z,22.23
2018-12-21T16:29:21.202Z,14.87
2018-12-21T16:31:53.567Z,19.83
2018-12-21T16:34:25.881Z,17.43
2018-12-21T16:36:58.331Z,21.00
2018-12-21T16:39:30.850Z,21.40
2018-12-21T16:42:03.354Z,17.90
2018-12-21T16:44:35.734Z,22.60
2018-12-21T16:47:08.630Z,21.43
2018-12-21T16:49:42.298Z,21.20
2018-12-21T16:52:14.914Z,21.57
2018-12-21T16:54:47.262Z,22.27
2018-12-21T16:57:19.615Z,15.40
2018-12-21T16:59:51.983Z,18.00
2018-12-21T17:02:24.448Z,19.10
2018-12-21T17:04:56.770Z,23.77
2018-12-21T17:07:29.086Z,15.47
2018-12-21T17:10:01.413Z,23.87
2018-12-21T17:12:33.839Z,26.30
2018-12-21T17:15:07.426Z,22.00
2018-12-21T17:17:39.792Z,27.97
2018-12-21T17:20:12.090Z,19.27
2018-12-21T17:22:44.479Z,22.37
2018-12-21T17:25:16.791Z,26.50
2018-12-21T17:27:49.382Z,24.03
2018-12-21T17:30:21.705Z,29.93
2018-12-21T17:32:54.729Z,23.07
2018-12-21T17:35:27.121Z,27.77
2018-12-21T17:37:59.436Z,27.50
2018-12-21T17:40:31.850Z,28.13
2018-12-21T17:43:04.430Z,23.70
2018-12-21T17:45:36.750Z,35.37
2018-12-21T17:48:09.062Z,28.20
2018-12-21T17:50:41.412Z,22.80
2018-12-21T17:53:13.759Z,23.30
2018-12-21T17:55:46.395Z,27.13
2018-12-21T17:58:19.819Z,29.23
2018-12-21T18:00:53.577Z,23.13
2018-12-21T18:03:33.383Z,23.27
2018-12-21T18:06:05.695Z,25.47
2018-12-21T18:08:38.058Z,26.93
2018-12-21T18:11:10.394Z,21.27
2018-12-21T18:13:42.698Z,25.00
2018-12-21T18:16:15.023Z,26.40
2018-12-21T18:18:47.422Z,28.93
2018-12-21T18:21:19.729Z,32.60
2018-12-21T18:23:52.066Z,26.10
2018-12-21T18:26:24.734Z,27.70
2018-12-21T18:28:57.069Z,28.27
2018-12-21T18:32:41.063Z,31.07
2018-12-21T18:35:15.833Z,27.87
2018-12-21T18:37:52.912Z,25.43
2018-12-21T18:40:25.497Z,32.73
2018-12-21T18:42:57.813Z,25.33
2018-12-21T18:45:30.182Z,30.50
2018-12-21T18:48:02.498Z,27.27
2018-12-21T18:50:34.849Z,31.90
2018-12-21T18:53:07.383Z,26.43
2018-12-21T18:55:39.899Z,26.67
2018-12-21T18:58:12.539Z,25.13
2018-12-21T19:00:44.858Z,28.27
2018-12-21T19:03:17.171Z,25.77
2018-12-21T19:05:49.481Z,28.23
2018-12-21T19:08:21.795Z,24.67
2018-12-21T19:10:54.127Z,31.90
2018-12-21T19:13:26.433Z,25.97
2018-12-21T19:15:58.771Z,28.60
2018-12-21T19:18:31.093Z,30.20
2018-12-21T19:21:03.449Z,27.60
2018-12-21T19:23:35.836Z,25.23
2018-12-21T19:26:08.478Z,25.00
2018-12-21T19:28:40.797Z,28.37
2018-12-21T19:31:13.177Z,30.90
2018-12-21T19:33:45.506Z,30.03
2018-12-21T19:36:17.836Z,34.60
2018-12-21T19:38:50.440Z,28.47
2018-12-21T19:41:23.274Z,27.83
2018-12-21T19:43:55.593Z,33.63
2018-12-21T19:46:27.922Z,26.87
2018-12-21T19:49:00.239Z,37.77
2018-12-21T19:51:32.606Z,34.90
2018-12-21T19:54:05.207Z,40.33
2018-12-21T19:56:46.903Z,33.70
2018-12-21T19:59:19.439Z,23.43
2018-12-21T20:01:51.802Z,30.27
2018-12-21T20:04:24.121Z,28.20
2018-12-21T20:06:56.655Z,32.00
2018-12-21T20:09:28.959Z,27.27
2018-12-21T20:12:01.529Z,28.17
2018-12-21T20:14:33.859Z,27.47
2018-12-21T20:17:06.187Z,26.80
2018-12-21T20:19:38.884Z,27.13
2018-12-21T20:22:11.465Z,28.93
2018-12-21T20:24:43.781Z,32.67
2018-12-21T20:27:16.131Z,29.13
2018-12-21T20:29:48.435Z,32.23
2018-12-21T20:32:21.942Z,29.57
2018-12-21T20:34:54.730Z,30.83
2018-12-21T20:37:27.090Z,31.63
2018-12-21T20:39:59.411Z,31.17
2018-12-21T20:42:31.729Z,28.60
2018-12-21T20:45:04.923Z,31.53
2018-12-21T20:47:37.230Z,28.97
2018-12-21T20:50:12.722Z,30.60
2018-12-21T20:52:45.034Z,33.33
2018-12-21T20:55:17.350Z,28.23
2018-12-21T20:57:52.197Z,39.07
2018-12-21T21:00:24.522Z,30.43
2018-12-21T21:02:57.166Z,27.97
2018-12-21T21:05:29.466Z,27.90
2018-12-21T21:08:03.263Z,25.30
2018-12-21T21:10:42.643Z,30.53
2018-12-21T21:13:19.218Z,39.27
2018-12-21T21:15:49.461Z,32.83
2018-12-21T21:18:21.841Z,30.27
2018-12-21T21:20:54.149Z,31.83
2018-12-21T21:23:26.482Z,35.17
2018-12-21T21:25:58.826Z,26.73
2018-12-21T21:28:31.163Z,29.57
2018-12-21T21:31:03.466Z,31.00
2018-12-21T21:33:35.875Z,33.20
2018-12-21T21:36:08.187Z,39.90
2018-12-21T21:38:40.517Z,32.63
2018-12-21T21:41:12.817Z,28.33
2018-12-21T21:43:45.153Z,30.00
2018-12-21T21:46:17.550Z,35.87
2018-12-21T21:48:49.868Z,32.30
2018-12-21T21:51:22.174Z,27.03
2018-12-21T21:53:54.760Z,33.10
2018-12-21T21:56:27.084Z,26.93
2018-12-21T21:58:59.480Z,41.27
2018-12-21T22:01:31.895Z,32.97
2018-12-21T22:04:04.305Z,33.73
2018-12-21T22:06:36.637Z,35.57
2018-12-21T22:09:09.234Z,43.17
2018-12-21T22:11:41.546Z,29.33
2018-12-21T22:14:13.905Z,33.27
2018-12-21T22:16:46.223Z,39.37
2018-12-21T22:19:18.547Z,31.47
2018-12-21T22:21:51.142Z,36.27
2018-12-21T22:24:23.449Z,30.70
2018-12-21T22:26:55.795Z,30.53
2018-12-21T22:29:28.371Z,33.97
2018-12-21T22:32:00.704Z,33.50
2018-12-21T22:34:33.038Z,36.30
2018-12-21T22:37:05.362Z,30.13
2018-12-21T22:39:37.694Z,35.43
2018-12-21T22:42:10.021Z,27.47
2018-12-21T22:44:42.369Z,33.67
2018-12-21T22:47:14.791Z,36.03
2018-12-21T22:49:47.108Z,34.73
2018-12-21T22:52:19.405Z,29.87
2018-12-21T22:54:51.714Z,35.43
2018-12-21T22:57:24.026Z,30.53
2018-12-21T22:59:56.343Z,32.57
2018-12-21T23:02:28.898Z,36.03
2018-12-21T23:05:01.231Z,33.13
2018-12-21T23:07:33.530Z,32.27
2018-12-21T23:10:06.586Z,27.00
2018-12-21T23:12:39.180Z,32.83
2018-12-21T23:15:11.491Z,31.00
2018-12-21T23:17:43.801Z,28.90
2018-12-21T23:20:16.411Z,35.40
2018-12-21T23:22:49.034Z,31.10
2018-12-21T23:25:21.618Z,38.67
2018-12-21T23:27:53.922Z,34.97
2018-12-21T23:30:26.244Z,31.93
2018-12-21T23:32:58.566Z,29.00
2018-12-21T23:35:31.155Z,38.97
2018-12-21T23:38:03.538Z,34.57
2018-12-21T23:40:35.870Z,40.67
2018-12-21T23:43:08.517Z,36.73
2018-12-21T23:45:41.094Z,39.87
2018-12-21T23:48:13.447Z,30.23
2018-12-21T23:50:45.757Z,28.10
2018-12-21T23:53:18.062Z,40.03
2018-12-21T23:55:50.378Z,24.90
2018-12-21T23:58:22.681Z,38.13
